sensor_id;sensor_type;location;lat;lon;timestamp;P1;durP1;ratioP1;P2;durP2;ratioP2
22284;SDS011;11311;52.192;20.900;2022-09-17T00:01:03;4.85;;;3.63;;
22284;SDS011;11311;52.192;20.900;2022-09-17T00:04:12;4.60;;;3.28;;
22284;SDS011;11311;52.192;20.900;2022-09-17T00:10:34;5.45;;;3.15;;
22284;SDS011;11311;52.192;20.900;2022-09-17T00:13:45;6.50;;;3.33;;
22284;SDS011;11311;52.192;20.900;2022-09-17T00:16:56;4.82;;;3.25;;
22284;SDS011;11311;52.192;20.900;2022-09-17T00:20:08;6.80;;;3.20;;
22284;SDS011;11311;52.192;20.900;2022-09-17T00:23:18;4.37;;;3.33;;
22284;SDS011;11311;52.192;20.900;2022-09-17T00:26:27;6.05;;;3.22;;
22284;SDS011;11311;52.192;20.900;2022-09-17T00:29:36;3.85;;;2.45;;
22284;SDS011;11311;52.192;20.900;2022-09-17T00:32:47;5.72;;;2.90;;
22284;SDS011;11311;52.192;20.900;2022-09-17T00:35:57;6.35;;;2.83;;
22284;SDS011;11311;52.192;20.900;2022-09-17T00:39:07;7.10;;;3.50;;
22284;SDS011;11311;52.192;20.900;2022-09-17T00:42:17;5.03;;;2.80;;
22284;SDS011;11311;52.192;20.900;2022-09-17T00:45:27;4.32;;;3.05;;
22284;SDS011;11311;52.192;20.900;2022-09-17T00:48:39;5.25;;;3.33;;
22284;SDS011;11311;52.192;20.900;2022-09-17T00:51:51;3.42;;;2.90;;
22284;SDS011;11311;52.192;20.900;2022-09-17T00:55:08;4.25;;;3.30;;
22284;SDS011;11311;52.192;20.900;2022-09-17T00:58:20;3.55;;;2.85;;
22284;SDS011;11311;52.192;20.900;2022-09-17T01:01:30;3.22;;;2.85;;
22284;SDS011;11311;52.192;20.900;2022-09-17T01:04:40;3.92;;;3.50;;
22284;SDS011;11311;52.192;20.900;2022-09-17T01:07:55;3.28;;;2.88;;
22284;SDS011;11311;52.192;20.900;2022-09-17T01:11:14;5.10;;;3.20;;
22284;SDS011;11311;52.192;20.900;2022-09-17T01:14:37;6.53;;;3.13;;
22284;SDS011;11311;52.192;20.900;2022-09-17T01:17:59;4.30;;;2.63;;
22284;SDS011;11311;52.192;20.900;2022-09-17T01:21:30;3.97;;;3.03;;
22284;SDS011;11311;52.192;20.900;2022-09-17T01:24:46;3.05;;;2.75;;
22284;SDS011;11311;52.192;20.900;2022-09-17T01:28:13;6.53;;;2.72;;
22284;SDS011;11311;52.192;20.900;2022-09-17T01:31:34;10.35;;;2.67;;
22284;SDS011;11311;52.192;20.900;2022-09-17T01:34:48;4.30;;;3.13;;
22284;SDS011;11311;52.192;20.900;2022-09-17T01:38:03;4.22;;;2.90;;
22284;SDS011;11311;52.192;20.900;2022-09-17T01:41:17;4.43;;;3.17;;
22284;SDS011;11311;52.192;20.900;2022-09-17T01:44:32;4.47;;;3.00;;
22284;SDS011;11311;52.192;20.900;2022-09-17T01:47:46;6.13;;;3.42;;
22284;SDS011;11311;52.192;20.900;2022-09-17T01:50:59;2.90;;;2.58;;
22284;SDS011;11311;52.192;20.900;2022-09-17T01:54:14;4.13;;;3.08;;
22284;SDS011;11311;52.192;20.900;2022-09-17T01:57:25;6.97;;;2.75;;
22284;SDS011;11311;52.192;20.900;2022-09-17T02:00:37;7.38;;;3.33;;
22284;SDS011;11311;52.192;20.900;2022-09-17T02:03:51;6.28;;;3.72;;
22284;SDS011;11311;52.192;20.900;2022-09-17T02:07:05;4.63;;;2.85;;
22284;SDS011;11311;52.192;20.900;2022-09-17T02:10:19;4.78;;;2.75;;
22284;SDS011;11311;52.192;20.900;2022-09-17T02:13:31;8.75;;;4.18;;
22284;SDS011;11311;52.192;20.900;2022-09-17T02:16:44;3.80;;;2.47;;
22284;SDS011;11311;52.192;20.900;2022-09-17T02:19:56;3.35;;;3.05;;
22284;SDS011;11311;52.192;20.900;2022-09-17T02:23:07;5.28;;;2.72;;
22284;SDS011;11311;52.192;20.900;2022-09-17T02:26:20;6.20;;;3.15;;
22284;SDS011;11311;52.192;20.900;2022-09-17T02:29:32;8.18;;;2.58;;
22284;SDS011;11311;52.192;20.900;2022-09-17T02:32:44;4.57;;;3.08;;
22284;SDS011;11311;52.192;20.900;2022-09-17T02:35:54;6.18;;;2.90;;
22284;SDS011;11311;52.192;20.900;2022-09-17T02:39:03;7.57;;;3.47;;
22284;SDS011;11311;52.192;20.900;2022-09-17T02:42:14;4.70;;;2.90;;
22284;SDS011;11311;52.192;20.900;2022-09-17T02:45:32;4.95;;;2.70;;
22284;SDS011;11311;52.192;20.900;2022-09-17T02:48:58;5.55;;;3.10;;
22284;SDS011;11311;52.192;20.900;2022-09-17T02:52:26;4.25;;;2.67;;
22284;SDS011;11311;52.192;20.900;2022-09-17T02:55:41;6.25;;;3.13;;
22284;SDS011;11311;52.192;20.900;2022-09-17T02:58:54;5.80;;;2.60;;
22284;SDS011;11311;52.192;20.900;2022-09-17T03:02:06;5.68;;;3.33;;
22284;SDS011;11311;52.192;20.900;2022-09-17T03:05:19;3.47;;;3.03;;
22284;SDS011;11311;52.192;20.900;2022-09-17T03:08:31;9.65;;;3.72;;
22284;SDS011;11311;52.192;20.900;2022-09-17T03:11:43;7.13;;;3.25;;
22284;SDS011;11311;52.192;20.900;2022-09-17T03:14:52;5.50;;;2.92;;
22284;SDS011;11311;52.192;20.900;2022-09-17T03:18:01;11.48;;;3.42;;
22284;SDS011;11311;52.192;20.900;2022-09-17T03:21:10;5.55;;;2.83;;
22284;SDS011;11311;52.192;20.900;2022-09-17T03:24:21;7.47;;;3.45;;
22284;SDS011;11311;52.192;20.900;2022-09-17T03:27:30;5.53;;;3.30;;
22284;SDS011;11311;52.192;20.900;2022-09-17T03:30:39;7.47;;;3.08;;
22284;SDS011;11311;52.192;20.900;2022-09-17T03:33:48;4.68;;;3.70;;
22284;SDS011;11311;52.192;20.900;2022-09-17T03:36:57;9.20;;;2.65;;
22284;SDS011;11311;52.192;20.900;2022-09-17T03:40:08;5.30;;;3.83;;
22284;SDS011;11311;52.192;20.900;2022-09-17T03:43:17;5.18;;;3.22;;
22284;SDS011;11311;52.192;20.900;2022-09-17T03:46:26;7.30;;;4.32;;
22284;SDS011;11311;52.192;20.900;2022-09-17T03:49:34;7.88;;;3.10;;
22284;SDS011;11311;52.192;20.900;2022-09-17T03:52:44;7.70;;;3.55;;
22284;SDS011;11311;52.192;20.900;2022-09-17T03:55:56;7.22;;;4.50;;
22284;SDS011;11311;52.192;20.900;2022-09-17T03:59:05;8.27;;;3.67;;
22284;SDS011;11311;52.192;20.900;2022-09-17T04:02:14;6.47;;;3.40;;
22284;SDS011;11311;52.192;20.900;2022-09-17T04:05:23;4.43;;;2.97;;
22284;SDS011;11311;52.192;20.900;2022-09-17T04:08:32;4.40;;;2.88;;
22284;SDS011;11311;52.192;20.900;2022-09-17T04:11:44;4.95;;;3.75;;
22284;SDS011;11311;52.192;20.900;2022-09-17T04:14:53;6.10;;;3.58;;
22284;SDS011;11311;52.192;20.900;2022-09-17T04:18:02;5.38;;;3.42;;
22284;SDS011;11311;52.192;20.900;2022-09-17T04:21:11;8.32;;;4.00;;
22284;SDS011;11311;52.192;20.900;2022-09-17T04:24:20;11.35;;;3.90;;
22284;SDS011;11311;52.192;20.900;2022-09-17T04:27:30;6.03;;;3.83;;
22284;SDS011;11311;52.192;20.900;2022-09-17T04:30:39;4.45;;;3.67;;
22284;SDS011;11311;52.192;20.900;2022-09-17T04:33:49;4.63;;;3.13;;
22284;SDS011;11311;52.192;20.900;2022-09-17T04:36:58;5.65;;;4.20;;
22284;SDS011;11311;52.192;20.900;2022-09-17T04:40:07;5.13;;;3.72;;
22284;SDS011;11311;52.192;20.900;2022-09-17T04:43:18;4.60;;;4.20;;
22284;SDS011;11311;52.192;20.900;2022-09-17T04:46:27;4.50;;;3.97;;
22284;SDS011;11311;52.192;20.900;2022-09-17T04:49:36;4.32;;;3.50;;
22284;SDS011;11311;52.192;20.900;2022-09-17T04:52:45;5.85;;;3.90;;
22284;SDS011;11311;52.192;20.900;2022-09-17T04:55:54;4.38;;;3.35;;
22284;SDS011;11311;52.192;20.900;2022-09-17T04:59:05;3.72;;;3.20;;
22284;SDS011;11311;52.192;20.900;2022-09-17T05:02:14;4.95;;;3.72;;
22284;SDS011;11311;52.192;20.900;2022-09-17T05:05:23;4.38;;;3.50;;
22284;SDS011;11311;52.192;20.900;2022-09-17T05:08:32;4.63;;;3.50;;
22284;SDS011;11311;52.192;20.900;2022-09-17T05:11:41;6.40;;;3.40;;
22284;SDS011;11311;52.192;20.900;2022-09-17T05:14:51;6.57;;;4.50;;
22284;SDS011;11311;52.192;20.900;2022-09-17T05:18:00;5.20;;;3.50;;
22284;SDS011;11311;52.192;20.900;2022-09-17T05:21:09;6.22;;;3.53;;
22284;SDS011;11311;52.192;20.900;2022-09-17T05:24:18;4.13;;;3.42;;
22284;SDS011;11311;52.192;20.900;2022-09-17T05:27:29;5.60;;;3.13;;
22284;SDS011;11311;52.192;20.900;2022-09-17T05:30:40;8.27;;;2.75;;
22284;SDS011;11311;52.192;20.900;2022-09-17T05:33:49;5.57;;;3.60;;
22284;SDS011;11311;52.192;20.900;2022-09-17T05:36:58;6.97;;;3.03;;
22284;SDS011;11311;52.192;20.900;2022-09-17T05:40:07;3.92;;;2.72;;
22284;SDS011;11311;52.192;20.900;2022-09-17T05:43:17;3.55;;;3.10;;
22284;SDS011;11311;52.192;20.900;2022-09-17T05:46:27;6.50;;;3.55;;
22284;SDS011;11311;52.192;20.900;2022-09-17T05:49:36;3.78;;;2.90;;
22284;SDS011;11311;52.192;20.900;2022-09-17T05:52:45;7.03;;;3.75;;
22284;SDS011;11311;52.192;20.900;2022-09-17T05:55:55;3.20;;;2.33;;
22284;SDS011;11311;52.192;20.900;2022-09-17T05:59:04;6.40;;;2.47;;
22284;SDS011;11311;52.192;20.900;2022-09-17T06:02:16;4.40;;;2.10;;
22284;SDS011;11311;52.192;20.900;2022-09-17T06:05:25;3.70;;;2.20;;
22284;SDS011;11311;52.192;20.900;2022-09-17T06:08:35;3.40;;;2.28;;
22284;SDS011;11311;52.192;20.900;2022-09-17T06:11:44;6.63;;;1.98;;
22284;SDS011;11311;52.192;20.900;2022-09-17T06:14:53;4.40;;;2.30;;
22284;SDS011;11311;52.192;20.900;2022-09-17T06:18:04;5.55;;;2.28;;
22284;SDS011;11311;52.192;20.900;2022-09-17T06:21:13;8.77;;;2.42;;
22284;SDS011;11311;52.192;20.900;2022-09-17T06:24:23;2.85;;;1.65;;
22284;SDS011;11311;52.192;20.900;2022-09-17T06:27:33;8.40;;;2.80;;
22284;SDS011;11311;52.192;20.900;2022-09-17T06:30:42;8.10;;;2.47;;
22284;SDS011;11311;52.192;20.900;2022-09-17T06:33:54;10.73;;;2.13;;
22284;SDS011;11311;52.192;20.900;2022-09-17T06:37:04;6.28;;;2.50;;
22284;SDS011;11311;52.192;20.900;2022-09-17T06:40:13;14.80;;;2.80;;
22284;SDS011;11311;52.192;20.900;2022-09-17T06:43:24;4.80;;;2.05;;
22284;SDS011;11311;52.192;20.900;2022-09-17T06:46:33;10.43;;;2.55;;
22284;SDS011;11311;52.192;20.900;2022-09-17T06:49:44;3.03;;;1.70;;
22284;SDS011;11311;52.192;20.900;2022-09-17T06:52:53;7.85;;;2.97;;
22284;SDS011;11311;52.192;20.900;2022-09-17T06:56:02;4.80;;;2.42;;
22284;SDS011;11311;52.192;20.900;2022-09-17T06:59:13;5.45;;;2.13;;
22284;SDS011;11311;52.192;20.900;2022-09-17T07:02:22;4.43;;;2.33;;
22284;SDS011;11311;52.192;20.900;2022-09-17T07:05:32;5.22;;;2.28;;
22284;SDS011;11311;52.192;20.900;2022-09-17T07:08:41;4.78;;;2.30;;
22284;SDS011;11311;52.192;20.900;2022-09-17T07:11:50;4.25;;;2.60;;
22284;SDS011;11311;52.192;20.900;2022-09-17T07:14:59;5.28;;;2.40;;
22284;SDS011;11311;52.192;20.900;2022-09-17T07:18:08;8.45;;;2.28;;
22284;SDS011;11311;52.192;20.900;2022-09-17T07:21:19;4.32;;;2.80;;
22284;SDS011;11311;52.192;20.900;2022-09-17T07:27:39;7.03;;;3.60;;
22284;SDS011;11311;52.192;20.900;2022-09-17T07:30:48;9.95;;;2.78;;
22284;SDS011;11311;52.192;20.900;2022-09-17T07:33:57;11.88;;;2.97;;
22284;SDS011;11311;52.192;20.900;2022-09-17T07:37:09;4.50;;;2.78;;
22284;SDS011;11311;52.192;20.900;2022-09-17T07:40:18;8.52;;;3.90;;
22284;SDS011;11311;52.192;20.900;2022-09-17T07:43:28;10.88;;;3.03;;
22284;SDS011;11311;52.192;20.900;2022-09-17T07:46:38;7.30;;;3.00;;
22284;SDS011;11311;52.192;20.900;2022-09-17T07:49:47;7.00;;;2.90;;
22284;SDS011;11311;52.192;20.900;2022-09-17T07:52:57;6.07;;;2.92;;
22284;SDS011;11311;52.192;20.900;2022-09-17T07:56:07;3.45;;;2.58;;
22284;SDS011;11311;52.192;20.900;2022-09-17T07:59:18;4.00;;;2.47;;
22284;SDS011;11311;52.192;20.900;2022-09-17T08:02:27;4.88;;;2.85;;
22284;SDS011;11311;52.192;20.900;2022-09-17T08:05:36;7.18;;;2.72;;
22284;SDS011;11311;52.192;20.900;2022-09-17T08:08:47;5.90;;;2.45;;
22284;SDS011;11311;52.192;20.900;2022-09-17T08:15:06;5.57;;;2.72;;
22284;SDS011;11311;52.192;20.900;2022-09-17T08:18:15;7.07;;;2.27;;
22284;SDS011;11311;52.192;20.900;2022-09-17T08:21:24;4.35;;;2.28;;
22284;SDS011;11311;52.192;20.900;2022-09-17T08:24:35;8.73;;;2.30;;
22284;SDS011;11311;52.192;20.900;2022-09-17T08:27:44;4.72;;;2.50;;
22284;SDS011;11311;52.192;20.900;2022-09-17T08:30:53;3.08;;;2.55;;
22284;SDS011;11311;52.192;20.900;2022-09-17T08:34:05;3.28;;;1.75;;
22284;SDS011;11311;52.192;20.900;2022-09-17T08:37:15;3.38;;;2.22;;
22284;SDS011;11311;52.192;20.900;2022-09-17T08:40:25;4.20;;;2.35;;
22284;SDS011;11311;52.192;20.900;2022-09-17T08:43:36;5.47;;;2.17;;
22284;SDS011;11311;52.192;20.900;2022-09-17T08:46:49;2.67;;;2.25;;
22284;SDS011;11311;52.192;20.900;2022-09-17T08:50:00;6.50;;;2.83;;
22284;SDS011;11311;52.192;20.900;2022-09-17T08:56:46;3.85;;;2.00;;
22284;SDS011;11311;52.192;20.900;2022-09-17T09:00:05;5.82;;;1.70;;
22284;SDS011;11311;52.192;20.900;2022-09-17T09:03:20;2.17;;;1.75;;
22284;SDS011;11311;52.192;20.900;2022-09-17T09:06:40;4.03;;;1.88;;
22284;SDS011;11311;52.192;20.900;2022-09-17T09:09:53;2.88;;;1.80;;
22284;SDS011;11311;52.192;20.900;2022-09-17T09:13:12;3.05;;;1.75;;
22284;SDS011;11311;52.192;20.900;2022-09-17T09:16:24;4.65;;;1.75;;
22284;SDS011;11311;52.192;20.900;2022-09-17T09:19:38;3.17;;;1.80;;
22284;SDS011;11311;52.192;20.900;2022-09-17T09:22:50;2.42;;;1.90;;
22284;SDS011;11311;52.192;20.900;2022-09-17T09:26:02;4.27;;;1.83;;
22284;SDS011;11311;52.192;20.900;2022-09-17T09:29:19;3.17;;;1.80;;
22284;SDS011;11311;52.192;20.900;2022-09-17T09:32:36;2.20;;;1.30;;
22284;SDS011;11311;52.192;20.900;2022-09-17T09:35:52;1.45;;;1.27;;
22284;SDS011;11311;52.192;20.900;2022-09-17T09:39:02;2.15;;;1.23;;
22284;SDS011;11311;52.192;20.900;2022-09-17T09:42:15;2.67;;;1.45;;
22284;SDS011;11311;52.192;20.900;2022-09-17T09:45:36;2.40;;;1.60;;
22284;SDS011;11311;52.192;20.900;2022-09-17T09:48:51;3.67;;;1.33;;
22284;SDS011;11311;52.192;20.900;2022-09-17T09:52:14;1.98;;;1.50;;
22284;SDS011;11311;52.192;20.900;2022-09-17T09:55:31;1.42;;;1.20;;
22284;SDS011;11311;52.192;20.900;2022-09-17T10:01:58;1.42;;;1.25;;
22284;SDS011;11311;52.192;20.900;2022-09-17T10:08:16;2.25;;;1.20;;
22284;SDS011;11311;52.192;20.900;2022-09-17T10:11:26;5.22;;;1.77;;
22284;SDS011;11311;52.192;20.900;2022-09-17T10:14:36;3.88;;;1.92;;
22284;SDS011;11311;52.192;20.900;2022-09-17T10:17:47;3.78;;;1.90;;
22284;SDS011;11311;52.192;20.900;2022-09-17T10:20:57;6.03;;;2.15;;
22284;SDS011;11311;52.192;20.900;2022-09-17T10:24:10;5.70;;;2.58;;
22284;SDS011;11311;52.192;20.900;2022-09-17T10:27:24;2.85;;;2.22;;
22284;SDS011;11311;52.192;20.900;2022-09-17T10:30:34;3.42;;;2.28;;
22284;SDS011;11311;52.192;20.900;2022-09-17T10:33:54;3.55;;;2.75;;
22284;SDS011;11311;52.192;20.900;2022-09-17T10:37:04;3.67;;;2.17;;
22284;SDS011;11311;52.192;20.900;2022-09-17T10:40:27;2.47;;;2.00;;
22284;SDS011;11311;52.192;20.900;2022-09-17T10:43:38;2.30;;;2.05;;
22284;SDS011;11311;52.192;20.900;2022-09-17T10:46:47;2.22;;;1.75;;
22284;SDS011;11311;52.192;20.900;2022-09-17T10:49:58;2.60;;;2.08;;
22284;SDS011;11311;52.192;20.900;2022-09-17T10:53:13;3.08;;;2.20;;
22284;SDS011;11311;52.192;20.900;2022-09-17T10:56:24;4.00;;;2.38;;
22284;SDS011;11311;52.192;20.900;2022-09-17T10:59:41;4.80;;;2.47;;
22284;SDS011;11311;52.192;20.900;2022-09-17T11:03:05;5.38;;;2.60;;
22284;SDS011;11311;52.192;20.900;2022-09-17T11:06:36;3.83;;;2.22;;
22284;SDS011;11311;52.192;20.900;2022-09-17T11:10:09;4.15;;;2.42;;
22284;SDS011;11311;52.192;20.900;2022-09-17T11:13:23;1.80;;;1.70;;
22284;SDS011;11311;52.192;20.900;2022-09-17T11:16:38;5.22;;;2.58;;
22284;SDS011;11311;52.192;20.900;2022-09-17T11:19:53;3.55;;;2.60;;
22284;SDS011;11311;52.192;20.900;2022-09-17T11:23:14;3.05;;;2.35;;
22284;SDS011;11311;52.192;20.900;2022-09-17T11:26:34;2.97;;;2.05;;
22284;SDS011;11311;52.192;20.900;2022-09-17T11:29:52;3.83;;;2.60;;
22284;SDS011;11311;52.192;20.900;2022-09-17T11:33:18;4.90;;;3.20;;
22284;SDS011;11311;52.192;20.900;2022-09-17T11:36:52;6.90;;;2.20;;
22284;SDS011;11311;52.192;20.900;2022-09-17T11:40:05;2.92;;;1.92;;
22284;SDS011;11311;52.192;20.900;2022-09-17T11:43:21;2.45;;;1.55;;
22284;SDS011;11311;52.192;20.900;2022-09-17T11:46:36;2.05;;;1.70;;
22284;SDS011;11311;52.192;20.900;2022-09-17T11:49:47;1.92;;;1.55;;
22284;SDS011;11311;52.192;20.900;2022-09-17T11:53:02;1.52;;;1.27;;
22284;SDS011;11311;52.192;20.900;2022-09-17T11:56:16;1.33;;;1.20;;
22284;SDS011;11311;52.192;20.900;2022-09-17T11:59:29;6.88;;;1.13;;
22284;SDS011;11311;52.192;20.900;2022-09-17T12:02:44;2.75;;;1.55;;
22284;SDS011;11311;52.192;20.900;2022-09-17T12:05:58;1.15;;;0.80;;
22284;SDS011;11311;52.192;20.900;2022-09-17T12:09:11;1.92;;;1.00;;
22284;SDS011;11311;52.192;20.900;2022-09-17T12:12:24;3.85;;;1.20;;
22284;SDS011;11311;52.192;20.900;2022-09-17T12:15:59;2.10;;;1.20;;
22284;SDS011;11311;52.192;20.900;2022-09-17T12:19:13;1.75;;;1.65;;
22284;SDS011;11311;52.192;20.900;2022-09-17T12:22:28;2.47;;;1.70;;
22284;SDS011;11311;52.192;20.900;2022-09-17T12:25:43;2.33;;;2.13;;
22284;SDS011;11311;52.192;20.900;2022-09-17T12:29:00;2.33;;;1.90;;
22284;SDS011;11311;52.192;20.900;2022-09-17T12:32:19;2.88;;;1.90;;
22284;SDS011;11311;52.192;20.900;2022-09-17T12:35:39;2.63;;;2.05;;
22284;SDS011;11311;52.192;20.900;2022-09-17T12:39:16;3.78;;;2.10;;
22284;SDS011;11311;52.192;20.900;2022-09-17T12:42:48;2.97;;;2.30;;
22284;SDS011;11311;52.192;20.900;2022-09-17T12:46:10;1.85;;;1.75;;
22284;SDS011;11311;52.192;20.900;2022-09-17T12:49:31;4.25;;;1.90;;
22284;SDS011;11311;52.192;20.900;2022-09-17T12:52:50;1.75;;;1.63;;
22284;SDS011;11311;52.192;20.900;2022-09-17T12:56:11;2.90;;;2.03;;
22284;SDS011;11311;52.192;20.900;2022-09-17T12:59:29;3.20;;;2.30;;
22284;SDS011;11311;52.192;20.900;2022-09-17T13:02:41;5.05;;;2.65;;
22284;SDS011;11311;52.192;20.900;2022-09-17T13:13:08;3.65;;;2.00;;
22284;SDS011;11311;52.192;20.900;2022-09-17T13:16:24;4.05;;;2.50;;
22284;SDS011;11311;52.192;20.900;2022-09-17T13:19:40;2.17;;;1.58;;
22284;SDS011;11311;52.192;20.900;2022-09-17T13:22:54;1.65;;;1.50;;
22284;SDS011;11311;52.192;20.900;2022-09-17T13:26:04;1.80;;;1.70;;
22284;SDS011;11311;52.192;20.900;2022-09-17T13:32:56;2.40;;;1.60;;
22284;SDS011;11311;52.192;20.900;2022-09-17T13:36:06;2.85;;;1.80;;
22284;SDS011;11311;52.192;20.900;2022-09-17T13:39:51;2.13;;;1.77;;
22284;SDS011;11311;52.192;20.900;2022-09-17T13:43:04;2.90;;;1.88;;
22284;SDS011;11311;52.192;20.900;2022-09-17T13:46:19;3.03;;;2.70;;
22284;SDS011;11311;52.192;20.900;2022-09-17T13:49:30;4.03;;;2.50;;
22284;SDS011;11311;52.192;20.900;2022-09-17T13:52:41;6.15;;;2.85;;
22284;SDS011;11311;52.192;20.900;2022-09-17T13:55:52;3.63;;;3.15;;
22284;SDS011;11311;52.192;20.900;2022-09-17T13:59:04;3.15;;;2.85;;
22284;SDS011;11311;52.192;20.900;2022-09-17T14:05:42;3.53;;;2.83;;
22284;SDS011;11311;52.192;20.900;2022-09-17T14:08:53;7.22;;;4.20;;
22284;SDS011;11311;52.192;20.900;2022-09-17T14:12:14;4.65;;;2.88;;
22284;SDS011;11311;52.192;20.900;2022-09-17T14:19:30;5.55;;;3.25;;
22284;SDS011;11311;52.192;20.900;2022-09-17T14:22:43;4.80;;;3.08;;
22284;SDS011;11311;52.192;20.900;2022-09-17T14:25:53;3.15;;;2.47;;
22284;SDS011;11311;52.192;20.900;2022-09-17T14:29:04;3.67;;;2.85;;
22284;SDS011;11311;52.192;20.900;2022-09-17T14:32:17;2.67;;;2.30;;
22284;SDS011;11311;52.192;20.900;2022-09-17T14:35:28;7.65;;;3.50;;
22284;SDS011;11311;52.192;20.900;2022-09-17T14:38:42;3.60;;;2.67;;
22284;SDS011;11311;52.192;20.900;2022-09-17T14:41:54;4.93;;;2.55;;
22284;SDS011;11311;52.192;20.900;2022-09-17T14:45:03;2.90;;;2.70;;
22284;SDS011;11311;52.192;20.900;2022-09-17T14:48:22;7.45;;;2.50;;
22284;SDS011;11311;52.192;20.900;2022-09-17T14:51:38;3.85;;;2.67;;
22284;SDS011;11311;52.192;20.900;2022-09-17T14:54:47;8.20;;;2.72;;
22284;SDS011;11311;52.192;20.900;2022-09-17T14:57:57;2.60;;;2.40;;
22284;SDS011;11311;52.192;20.900;2022-09-17T15:01:12;2.92;;;2.60;;
22284;SDS011;11311;52.192;20.900;2022-09-17T15:04:28;3.80;;;3.35;;
22284;SDS011;11311;52.192;20.900;2022-09-17T15:07:38;4.07;;;3.67;;
22284;SDS011;11311;52.192;20.900;2022-09-17T15:10:51;4.60;;;3.40;;
22284;SDS011;11311;52.192;20.900;2022-09-17T15:14:04;4.07;;;3.55;;
22284;SDS011;11311;52.192;20.900;2022-09-17T15:17:14;4.60;;;3.55;;
22284;SDS011;11311;52.192;20.900;2022-09-17T15:20:27;4.55;;;3.40;;
22284;SDS011;11311;52.192;20.900;2022-09-17T15:23:38;6.10;;;3.30;;
22284;SDS011;11311;52.192;20.900;2022-09-17T15:26:48;4.18;;;3.75;;
22284;SDS011;11311;52.192;20.900;2022-09-17T15:30:01;3.67;;;3.20;;
22284;SDS011;11311;52.192;20.900;2022-09-17T15:33:11;5.88;;;3.97;;
22284;SDS011;11311;52.192;20.900;2022-09-17T15:36:22;7.28;;;4.35;;
22284;SDS011;11311;52.192;20.900;2022-09-17T15:39:37;4.57;;;3.55;;
22284;SDS011;11311;52.192;20.900;2022-09-17T15:42:47;5.60;;;5.10;;
22284;SDS011;11311;52.192;20.900;2022-09-17T15:46:03;4.97;;;4.10;;
22284;SDS011;11311;52.192;20.900;2022-09-17T15:49:30;4.43;;;4.03;;
22284;SDS011;11311;52.192;20.900;2022-09-17T15:52:41;6.03;;;4.30;;
22284;SDS011;11311;52.192;20.900;2022-09-17T15:56:00;6.47;;;4.65;;
22284;SDS011;11311;52.192;20.900;2022-09-17T15:59:19;5.65;;;4.45;;
22284;SDS011;11311;52.192;20.900;2022-09-17T16:02:36;5.30;;;4.80;;
22284;SDS011;11311;52.192;20.900;2022-09-17T16:05:45;5.43;;;4.95;;
22284;SDS011;11311;52.192;20.900;2022-09-17T16:08:59;5.88;;;4.60;;
22284;SDS011;11311;52.192;20.900;2022-09-17T16:12:10;6.32;;;4.82;;
22284;SDS011;11311;52.192;20.900;2022-09-17T16:15:20;6.05;;;5.22;;
22284;SDS011;11311;52.192;20.900;2022-09-17T16:18:30;7.10;;;5.80;;
22284;SDS011;11311;52.192;20.900;2022-09-17T16:21:39;8.52;;;5.35;;
22284;SDS011;11311;52.192;20.900;2022-09-17T16:24:48;10.38;;;5.80;;
22284;SDS011;11311;52.192;20.900;2022-09-17T16:27:58;8.30;;;5.80;;
22284;SDS011;11311;52.192;20.900;2022-09-17T16:31:08;7.60;;;6.75;;
22284;SDS011;11311;52.192;20.900;2022-09-17T16:34:21;8.23;;;7.05;;
22284;SDS011;11311;52.192;20.900;2022-09-17T16:37:31;7.28;;;6.57;;
22284;SDS011;11311;52.192;20.900;2022-09-17T16:40:40;8.38;;;7.55;;
22284;SDS011;11311;52.192;20.900;2022-09-17T16:43:50;14.55;;;9.25;;
22284;SDS011;11311;52.192;20.900;2022-09-17T16:46:59;10.57;;;6.85;;
22284;SDS011;11311;52.192;20.900;2022-09-17T16:50:10;12.98;;;8.75;;
22284;SDS011;11311;52.192;20.900;2022-09-17T16:53:21;7.70;;;6.90;;
22284;SDS011;11311;52.192;20.900;2022-09-17T16:56:30;10.00;;;8.10;;
22284;SDS011;11311;52.192;20.900;2022-09-17T16:59:39;13.38;;;11.98;;
22284;SDS011;11311;52.192;20.900;2022-09-17T17:02:52;19.25;;;13.13;;
22284;SDS011;11311;52.192;20.900;2022-09-17T17:06:03;13.88;;;11.95;;
22284;SDS011;11311;52.192;20.900;2022-09-17T17:12:21;13.55;;;10.65;;
22284;SDS011;11311;52.192;20.900;2022-09-17T17:15:30;12.55;;;11.05;;
22284;SDS011;11311;52.192;20.900;2022-09-17T17:18:40;14.15;;;10.95;;
22284;SDS011;11311;52.192;20.900;2022-09-17T17:25:00;11.90;;;10.77;;
22284;SDS011;11311;52.192;20.900;2022-09-17T17:28:09;13.48;;;12.07;;
22284;SDS011;11311;52.192;20.900;2022-09-17T17:31:18;14.70;;;11.45;;
22284;SDS011;11311;52.192;20.900;2022-09-17T17:34:27;14.18;;;12.43;;
22284;SDS011;11311;52.192;20.900;2022-09-17T17:37:38;14.82;;;12.35;;
22284;SDS011;11311;52.192;20.900;2022-09-17T17:40:47;15.23;;;12.25;;
22284;SDS011;11311;52.192;20.900;2022-09-17T17:43:56;14.25;;;12.75;;
22284;SDS011;11311;52.192;20.900;2022-09-17T17:47:05;12.35;;;11.15;;
22284;SDS011;11311;52.192;20.900;2022-09-17T17:50:14;13.73;;;11.18;;
22284;SDS011;11311;52.192;20.900;2022-09-17T17:53:24;15.95;;;13.00;;
22284;SDS011;11311;52.192;20.900;2022-09-17T17:56:33;16.40;;;12.57;;
22284;SDS011;11311;52.192;20.900;2022-09-17T17:59:42;13.73;;;12.30;;
22284;SDS011;11311;52.192;20.900;2022-09-17T18:02:51;15.73;;;11.80;;
22284;SDS011;11311;52.192;20.900;2022-09-17T18:06:03;16.52;;;13.70;;
22284;SDS011;11311;52.192;20.900;2022-09-17T18:09:14;14.98;;;12.85;;
22284;SDS011;11311;52.192;20.900;2022-09-17T18:12:23;13.20;;;11.48;;
22284;SDS011;11311;52.192;20.900;2022-09-17T18:15:33;14.98;;;12.85;;
22284;SDS011;11311;52.192;20.900;2022-09-17T18:18:42;16.67;;;12.55;;
22284;SDS011;11311;52.192;20.900;2022-09-17T18:21:52;18.63;;;13.85;;
22284;SDS011;11311;52.192;20.900;2022-09-17T18:25:03;17.85;;;14.48;;
22284;SDS011;11311;52.192;20.900;2022-09-17T18:28:12;16.52;;;14.65;;
22284;SDS011;11311;52.192;20.900;2022-09-17T18:31:23;17.33;;;15.63;;
22284;SDS011;11311;52.192;20.900;2022-09-17T18:34:32;18.23;;;15.40;;
22284;SDS011;11311;52.192;20.900;2022-09-17T18:37:42;17.98;;;16.10;;
22284;SDS011;11311;52.192;20.900;2022-09-17T18:40:53;19.00;;;16.55;;
22284;SDS011;11311;52.192;20.900;2022-09-17T18:44:02;17.13;;;15.30;;
22284;SDS011;11311;52.192;20.900;2022-09-17T18:47:11;18.73;;;16.20;;
22284;SDS011;11311;52.192;20.900;2022-09-17T18:50:20;18.13;;;16.17;;
22284;SDS011;11311;52.192;20.900;2022-09-17T18:53:30;16.98;;;15.25;;
22284;SDS011;11311;52.192;20.900;2022-09-17T18:56:43;17.50;;;15.70;;
22284;SDS011;11311;52.192;20.900;2022-09-17T18:59:52;19.38;;;16.88;;
22284;SDS011;11311;52.192;20.900;2022-09-17T19:03:01;18.63;;;16.73;;
22284;SDS011;11311;52.192;20.900;2022-09-17T19:06:10;21.10;;;17.55;;
22284;SDS011;11311;52.192;20.900;2022-09-17T19:09:21;19.10;;;17.20;;
22284;SDS011;11311;52.192;20.900;2022-09-17T19:12:31;19.33;;;17.08;;
22284;SDS011;11311;52.192;20.900;2022-09-17T19:15:40;23.40;;;17.13;;
22284;SDS011;11311;52.192;20.900;2022-09-17T19:18:49;20.15;;;17.50;;
22284;SDS011;11311;52.192;20.900;2022-09-17T19:21:58;22.02;;;17.98;;
22284;SDS011;11311;52.192;20.900;2022-09-17T19:25:07;19.80;;;17.77;;
22284;SDS011;11311;52.192;20.900;2022-09-17T19:28:18;20.90;;;18.45;;
22284;SDS011;11311;52.192;20.900;2022-09-17T19:31:28;20.10;;;18.00;;
22284;SDS011;11311;52.192;20.900;2022-09-17T19:34:37;23.58;;;17.90;;
22284;SDS011;11311;52.192;20.900;2022-09-17T19:37:46;22.80;;;19.85;;
22284;SDS011;11311;52.192;20.900;2022-09-17T19:40:55;23.70;;;20.75;;